sensor_id;sensor_type;location;lat;lon;timestamp;P1;durP1;ratioP1;P2;durP2;ratioP2
75655;SDS011;64252;51.094;13.714;2024-01-15T00:00:41;12.18;;;4.90;;
75655;SDS011;64252;51.094;13.714;2024-01-15T00:03:08;11.90;;;4.63;;
75655;SDS011;64252;51.094;13.714;2024-01-15T00:05:34;9.50;;;4.35;;
75655;SDS011;64252;51.094;13.714;2024-01-15T00:08:01;11.65;;;4.72;;
75655;SDS011;64252;51.094;13.714;2024-01-15T00:10:27;12.02;;;4.68;;
75655;SDS011;64252;51.094;13.714;2024-01-15T00:12:53;9.18;;;4.18;;
75655;SDS011;64252;51.094;13.714;2024-01-15T00:15:18;12.10;;;4.13;;
75655;SDS011;64252;51.094;13.714;2024-01-15T00:17:44;12.68;;;4.43;;
75655;SDS011;64252;51.094;13.714;2024-01-15T00:20:10;12.02;;;4.15;;
75655;SDS011;64252;51.094;13.714;2024-01-15T00:22:39;10.98;;;4.70;;
75655;SDS011;64252;51.094;13.714;2024-01-15T00:25:05;10.95;;;4.75;;
75655;SDS011;64252;51.094;13.714;2024-01-15T00:27:30;11.45;;;4.95;;
75655;SDS011;64252;51.094;13.714;2024-01-15T00:29:56;9.98;;;4.80;;
75655;SDS011;64252;51.094;13.714;2024-01-15T00:32:24;8.95;;;3.85;;
75655;SDS011;64252;51.094;13.714;2024-01-15T00:34:50;12.88;;;4.65;;
75655;SDS011;64252;51.094;13.714;2024-01-15T00:37:15;10.40;;;3.95;;
75655;SDS011;64252;51.094;13.714;2024-01-15T00:39:41;9.02;;;4.05;;
75655;SDS011;64252;51.094;13.714;2024-01-15T00:42:07;12.63;;;4.60;;
75655;SDS011;64252;51.094;13.714;2024-01-15T00:44:33;9.18;;;4.47;;
75655;SDS011;64252;51.094;13.714;2024-01-15T00:46:58;9.77;;;4.15;;
75655;SDS011;64252;51.094;13.714;2024-01-15T00:49:24;10.85;;;4.68;;
75655;SDS011;64252;51.094;13.714;2024-01-15T00:51:50;11.35;;;4.38;;
75655;SDS011;64252;51.094;13.714;2024-01-15T00:54:15;9.02;;;4.10;;
75655;SDS011;64252;51.094;13.714;2024-01-15T00:56:41;9.98;;;4.53;;
75655;SDS011;64252;51.094;13.714;2024-01-15T00:59:06;10.20;;;4.57;;
75655;SDS011;64252;51.094;13.714;2024-01-15T01:01:35;9.30;;;4.20;;
75655;SDS011;64252;51.094;13.714;2024-01-15T01:04:03;12.52;;;4.47;;
75655;SDS011;64252;51.094;13.714;2024-01-15T01:06:29;11.60;;;4.15;;
75655;SDS011;64252;51.094;13.714;2024-01-15T01:08:54;7.35;;;3.47;;
75655;SDS011;64252;51.094;13.714;2024-01-15T01:11:20;10.82;;;4.68;;
75655;SDS011;64252;51.094;13.714;2024-01-15T01:13:46;8.23;;;3.65;;
75655;SDS011;64252;51.094;13.714;2024-01-15T01:16:11;11.80;;;4.47;;
75655;SDS011;64252;51.094;13.714;2024-01-15T01:18:37;11.13;;;5.07;;
75655;SDS011;64252;51.094;13.714;2024-01-15T01:21:03;12.55;;;5.07;;
75655;SDS011;64252;51.094;13.714;2024-01-15T01:23:28;11.85;;;4.72;;
75655;SDS011;64252;51.094;13.714;2024-01-15T01:25:54;13.88;;;6.07;;
75655;SDS011;64252;51.094;13.714;2024-01-15T01:28:20;10.15;;;4.95;;
75655;SDS011;64252;51.094;13.714;2024-01-15T01:30:45;12.75;;;5.18;;
75655;SDS011;64252;51.094;13.714;2024-01-15T01:33:11;13.73;;;5.15;;
75655;SDS011;64252;51.094;13.714;2024-01-15T01:35:37;11.50;;;5.32;;
75655;SDS011;64252;51.094;13.714;2024-01-15T01:38:02;12.80;;;5.05;;
75655;SDS011;64252;51.094;13.714;2024-01-15T01:40:28;10.13;;;4.70;;
75655;SDS011;64252;51.094;13.714;2024-01-15T01:42:54;10.43;;;4.60;;
75655;SDS011;64252;51.094;13.714;2024-01-15T01:45:22;14.60;;;5.32;;
75655;SDS011;64252;51.094;13.714;2024-01-15T01:47:48;12.07;;;3.65;;
75655;SDS011;64252;51.094;13.714;2024-01-15T01:50:14;14.30;;;5.40;;
75655;SDS011;64252;51.094;13.714;2024-01-15T01:52:40;14.10;;;5.57;;
75655;SDS011;64252;51.094;13.714;2024-01-15T01:55:06;10.48;;;4.53;;
75655;SDS011;64252;51.094;13.714;2024-01-15T01:57:34;12.20;;;5.43;;
75655;SDS011;64252;51.094;13.714;2024-01-15T02:00:01;11.65;;;4.78;;
75655;SDS011;64252;51.094;13.714;2024-01-15T02:02:36;13.00;;;5.13;;
75655;SDS011;64252;51.094;13.714;2024-01-15T02:05:03;13.23;;;5.35;;
75655;SDS011;64252;51.094;13.714;2024-01-15T02:07:31;14.43;;;5.00;;
75655;SDS011;64252;51.094;13.714;2024-01-15T02:09:59;12.18;;;4.47;;
75655;SDS011;64252;51.094;13.714;2024-01-15T02:12:25;11.63;;;4.75;;
75655;SDS011;64252;51.094;13.714;2024-01-15T02:14:53;11.77;;;4.82;;
75655;SDS011;64252;51.094;13.714;2024-01-15T02:17:19;10.93;;;4.78;;
75655;SDS011;64252;51.094;13.714;2024-01-15T02:19:44;10.82;;;4.45;;
75655;SDS011;64252;51.094;13.714;2024-01-15T02:22:10;13.18;;;5.38;;
75655;SDS011;64252;51.094;13.714;2024-01-15T02:24:36;12.85;;;5.00;;
75655;SDS011;64252;51.094;13.714;2024-01-15T02:27:01;10.77;;;4.75;;
75655;SDS011;64252;51.094;13.714;2024-01-15T02:29:27;11.32;;;4.57;;
75655;SDS011;64252;51.094;13.714;2024-01-15T02:31:53;14.60;;;5.43;;
75655;SDS011;64252;51.094;13.714;2024-01-15T02:34:18;10.20;;;4.85;;
75655;SDS011;64252;51.094;13.714;2024-01-15T02:36:44;13.45;;;4.90;;
75655;SDS011;64252;51.094;13.714;2024-01-15T02:39:09;11.20;;;5.00;;
75655;SDS011;64252;51.094;13.714;2024-01-15T02:41:35;13.52;;;5.75;;
75655;SDS011;64252;51.094;13.714;2024-01-15T02:44:00;15.20;;;6.18;;
75655;SDS011;64252;51.094;13.714;2024-01-15T02:46:26;13.00;;;5.45;;
75655;SDS011;64252;51.094;13.714;2024-01-15T02:48:52;12.45;;;5.60;;
75655;SDS011;64252;51.094;13.714;2024-01-15T02:51:17;13.90;;;5.13;;
75655;SDS011;64252;51.094;13.714;2024-01-15T02:53:43;10.68;;;4.82;;
75655;SDS011;64252;51.094;13.714;2024-01-15T02:56:09;12.00;;;4.95;;
75655;SDS011;64252;51.094;13.714;2024-01-15T02:58:34;12.32;;;5.55;;
75655;SDS011;64252;51.094;13.714;2024-01-15T03:01:00;12.70;;;5.43;;
75655;SDS011;64252;51.094;13.714;2024-01-15T03:03:25;16.90;;;6.32;;
75655;SDS011;64252;51.094;13.714;2024-01-15T03:05:51;13.13;;;5.65;;
75655;SDS011;64252;51.094;13.714;2024-01-15T03:08:17;13.52;;;5.30;;
75655;SDS011;64252;51.094;13.714;2024-01-15T03:10:42;13.55;;;5.60;;
75655;SDS011;64252;51.094;13.714;2024-01-15T03:13:11;13.27;;;6.30;;
75655;SDS011;64252;51.094;13.714;2024-01-15T03:15:37;13.85;;;6.03;;
75655;SDS011;64252;51.094;13.714;2024-01-15T03:18:03;16.35;;;5.93;;
75655;SDS011;64252;51.094;13.714;2024-01-15T03:20:29;14.88;;;5.78;;
75655;SDS011;64252;51.094;13.714;2024-01-15T03:22:54;14.35;;;5.82;;
75655;SDS011;64252;51.094;13.714;2024-01-15T03:25:20;15.20;;;5.90;;
75655;SDS011;64252;51.094;13.714;2024-01-15T03:27:46;14.48;;;5.53;;
75655;SDS011;64252;51.094;13.714;2024-01-15T03:30:11;14.02;;;5.22;;
75655;SDS011;64252;51.094;13.714;2024-01-15T03:32:37;13.35;;;5.90;;
75655;SDS011;64252;51.094;13.714;2024-01-15T03:35:03;14.05;;;6.10;;
75655;SDS011;64252;51.094;13.714;2024-01-15T03:37:29;15.10;;;5.75;;
75655;SDS011;64252;51.094;13.714;2024-01-15T03:39:54;13.57;;;5.95;;
75655;SDS011;64252;51.094;13.714;2024-01-15T03:42:20;11.10;;;5.15;;
75655;SDS011;64252;51.094;13.714;2024-01-15T03:44:46;13.75;;;5.85;;
75655;SDS011;64252;51.094;13.714;2024-01-15T03:47:11;15.07;;;5.72;;
75655;SDS011;64252;51.094;13.714;2024-01-15T03:49:37;13.00;;;6.15;;
75655;SDS011;64252;51.094;13.714;2024-01-15T03:52:03;13.77;;;5.70;;
75655;SDS011;64252;51.094;13.714;2024-01-15T03:54:28;15.65;;;6.25;;
75655;SDS011;64252;51.094;13.714;2024-01-15T03:56:54;18.55;;;7.65;;
75655;SDS011;64252;51.094;13.714;2024-01-15T03:59:20;19.08;;;8.73;;
75655;SDS011;64252;51.094;13.714;2024-01-15T04:01:49;17.63;;;6.97;;
75655;SDS011;64252;51.094;13.714;2024-01-15T04:04:16;15.52;;;6.47;;
75655;SDS011;64252;51.094;13.714;2024-01-15T04:06:42;20.10;;;8.02;;
75655;SDS011;64252;51.094;13.714;2024-01-15T04:09:07;17.70;;;7.60;;
75655;SDS011;64252;51.094;13.714;2024-01-15T04:11:33;20.35;;;7.72;;
75655;SDS011;64252;51.094;13.714;2024-01-15T04:13:59;18.08;;;7.78;;
75655;SDS011;64252;51.094;13.714;2024-01-15T04:16:24;18.15;;;6.68;;
75655;SDS011;64252;51.094;13.714;2024-01-15T04:18:50;17.50;;;6.50;;
75655;SDS011;64252;51.094;13.714;2024-01-15T04:21:17;15.63;;;6.57;;
75655;SDS011;64252;51.094;13.714;2024-01-15T04:23:43;15.88;;;5.65;;
75655;SDS011;64252;51.094;13.714;2024-01-15T04:26:12;16.58;;;6.05;;
75655;SDS011;64252;51.094;13.714;2024-01-15T04:28:38;13.60;;;4.95;;
75655;SDS011;64252;51.094;13.714;2024-01-15T04:31:03;13.05;;;5.85;;
75655;SDS011;64252;51.094;13.714;2024-01-15T04:33:29;18.02;;;7.00;;
75655;SDS011;64252;51.094;13.714;2024-01-15T04:35:54;19.77;;;5.97;;
75655;SDS011;64252;51.094;13.714;2024-01-15T04:38:20;15.73;;;5.40;;
75655;SDS011;64252;51.094;13.714;2024-01-15T04:40:46;17.60;;;6.25;;
75655;SDS011;64252;51.094;13.714;2024-01-15T04:43:11;12.52;;;4.55;;
75655;SDS011;64252;51.094;13.714;2024-01-15T04:45:37;14.15;;;5.47;;
75655;SDS011;64252;51.094;13.714;2024-01-15T04:48:06;17.48;;;5.65;;
75655;SDS011;64252;51.094;13.714;2024-01-15T04:50:35;14.77;;;5.72;;
75655;SDS011;64252;51.094;13.714;2024-01-15T04:53:00;17.25;;;5.05;;
75655;SDS011;64252;51.094;13.714;2024-01-15T04:55:29;12.68;;;5.35;;
75655;SDS011;64252;51.094;13.714;2024-01-15T04:57:54;13.57;;;5.40;;
75655;SDS011;64252;51.094;13.714;2024-01-15T05:00:20;15.30;;;6.30;;
75655;SDS011;64252;51.094;13.714;2024-01-15T05:02:46;16.23;;;5.50;;
75655;SDS011;64252;51.094;13.714;2024-01-15T05:05:11;12.50;;;5.03;;
75655;SDS011;64252;51.094;13.714;2024-01-15T05:07:38;17.05;;;6.50;;
75655;SDS011;64252;51.094;13.714;2024-01-15T05:10:04;11.05;;;4.55;;
75655;SDS011;64252;51.094;13.714;2024-01-15T05:12:31;14.40;;;5.20;;
75655;SDS011;64252;51.094;13.714;2024-01-15T05:14:57;15.50;;;5.55;;
75655;SDS011;64252;51.094;13.714;2024-01-15T05:17:22;13.43;;;4.85;;
75655;SDS011;64252;51.094;13.714;2024-01-15T05:19:48;13.90;;;5.03;;
75655;SDS011;64252;51.094;13.714;2024-01-15T05:22:13;13.40;;;5.00;;
75655;SDS011;64252;51.094;13.714;2024-01-15T05:24:39;13.57;;;5.28;;
75655;SDS011;64252;51.094;13.714;2024-01-15T05:27:05;14.57;;;5.28;;
75655;SDS011;64252;51.094;13.714;2024-01-15T05:29:30;13.48;;;4.82;;
75655;SDS011;64252;51.094;13.714;2024-01-15T05:31:56;13.18;;;5.38;;
75655;SDS011;64252;51.094;13.714;2024-01-15T05:34:21;14.00;;;6.18;;
75655;SDS011;64252;51.094;13.714;2024-01-15T05:36:47;14.32;;;5.25;;
75655;SDS011;64252;51.094;13.714;2024-01-15T05:39:13;12.98;;;3.95;;
75655;SDS011;64252;51.094;13.714;2024-01-15T05:41:38;13.90;;;5.55;;
75655;SDS011;64252;51.094;13.714;2024-01-15T05:44:04;13.25;;;5.38;;
75655;SDS011;64252;51.094;13.714;2024-01-15T05:46:30;10.05;;;4.00;;
75655;SDS011;64252;51.094;13.714;2024-01-15T05:48:56;11.75;;;4.82;;
75655;SDS011;64252;51.094;13.714;2024-01-15T05:51:22;12.85;;;5.35;;
75655;SDS011;64252;51.094;13.714;2024-01-15T05:53:48;12.23;;;4.55;;
75655;SDS011;64252;51.094;13.714;2024-01-15T05:56:13;14.07;;;5.35;;
75655;SDS011;64252;51.094;13.714;2024-01-15T05:58:39;11.23;;;4.53;;
75655;SDS011;64252;51.094;13.714;2024-01-15T06:01:05;13.98;;;5.10;;
75655;SDS011;64252;51.094;13.714;2024-01-15T06:03:30;11.38;;;4.68;;
75655;SDS011;64252;51.094;13.714;2024-01-15T06:05:56;15.95;;;5.75;;
75655;SDS011;64252;51.094;13.714;2024-01-15T06:08:22;13.70;;;4.53;;
75655;SDS011;64252;51.094;13.714;2024-01-15T06:10:47;13.25;;;4.18;;
75655;SDS011;64252;51.094;13.714;2024-01-15T06:13:13;12.70;;;5.03;;
75655;SDS011;64252;51.094;13.714;2024-01-15T06:15:39;21.20;;;7.35;;
75655;SDS011;64252;51.094;13.714;2024-01-15T06:18:05;14.45;;;5.07;;
75655;SDS011;64252;51.094;13.714;2024-01-15T06:20:30;13.77;;;4.55;;
75655;SDS011;64252;51.094;13.714;2024-01-15T06:22:56;11.30;;;5.22;;
75655;SDS011;64252;51.094;13.714;2024-01-15T06:25:22;10.07;;;4.35;;
75655;SDS011;64252;51.094;13.714;2024-01-15T06:27:47;14.55;;;4.72;;
75655;SDS011;64252;51.094;13.714;2024-01-15T06:30:13;13.93;;;4.55;;
75655;SDS011;64252;51.094;13.714;2024-01-15T06:32:39;13.50;;;4.63;;
75655;SDS011;64252;51.094;13.714;2024-01-15T06:35:05;13.40;;;5.57;;
75655;SDS011;64252;51.094;13.714;2024-01-15T06:37:31;12.93;;;4.90;;
75655;SDS011;64252;51.094;13.714;2024-01-15T06:39:57;8.98;;;4.20;;
75655;SDS011;64252;51.094;13.714;2024-01-15T06:42:23;11.93;;;4.00;;
75655;SDS011;64252;51.094;13.714;2024-01-15T06:44:50;10.88;;;4.28;;
75655;SDS011;64252;51.094;13.714;2024-01-15T06:47:15;13.40;;;5.00;;
75655;SDS011;64252;51.094;13.714;2024-01-15T06:49:42;11.82;;;4.68;;
75655;SDS011;64252;51.094;13.714;2024-01-15T06:52:08;11.50;;;4.65;;
75655;SDS011;64252;51.094;13.714;2024-01-15T06:54:34;18.45;;;5.00;;
75655;SDS011;64252;51.094;13.714;2024-01-15T06:56:59;9.27;;;3.90;;
75655;SDS011;64252;51.094;13.714;2024-01-15T06:59:25;11.98;;;4.40;;
75655;SDS011;64252;51.094;13.714;2024-01-15T07:01:50;8.25;;;3.45;;
75655;SDS011;64252;51.094;13.714;2024-01-15T07:04:16;9.88;;;4.13;;
75655;SDS011;64252;51.094;13.714;2024-01-15T07:06:42;11.02;;;4.78;;
75655;SDS011;64252;51.094;13.714;2024-01-15T07:09:07;12.60;;;4.78;;
75655;SDS011;64252;51.094;13.714;2024-01-15T07:11:34;11.45;;;3.83;;
75655;SDS011;64252;51.094;13.714;2024-01-15T07:14:00;10.27;;;4.07;;
75655;SDS011;64252;51.094;13.714;2024-01-15T07:16:25;9.18;;;3.95;;
75655;SDS011;64252;51.094;13.714;2024-01-15T07:18:51;13.18;;;3.90;;
75655;SDS011;64252;51.094;13.714;2024-01-15T07:21:17;13.15;;;4.88;;
75655;SDS011;64252;51.094;13.714;2024-01-15T07:23:42;10.63;;;4.63;;
75655;SDS011;64252;51.094;13.714;2024-01-15T07:26:08;14.65;;;4.95;;
75655;SDS011;64252;51.094;13.714;2024-01-15T07:28:34;11.35;;;4.15;;
75655;SDS011;64252;51.094;13.714;2024-01-15T07:31:00;10.18;;;4.15;;
75655;SDS011;64252;51.094;13.714;2024-01-15T07:33:26;9.93;;;4.50;;
75655;SDS011;64252;51.094;13.714;2024-01-15T07:35:52;12.27;;;4.22;;
75655;SDS011;64252;51.094;13.714;2024-01-15T07:38:18;9.40;;;4.53;;
75655;SDS011;64252;51.094;13.714;2024-01-15T07:40:43;13.05;;;5.15;;
75655;SDS011;64252;51.094;13.714;2024-01-15T07:43:09;13.57;;;5.25;;
75655;SDS011;64252;51.094;13.714;2024-01-15T07:45:35;13.80;;;5.10;;
75655;SDS011;64252;51.094;13.714;2024-01-15T07:48:01;11.38;;;4.32;;
75655;SDS011;64252;51.094;13.714;2024-01-15T07:50:26;12.45;;;5.25;;
75655;SDS011;64252;51.094;13.714;2024-01-15T07:52:52;10.75;;;5.13;;
75655;SDS011;64252;51.094;13.714;2024-01-15T07:55:18;10.73;;;4.53;;
75655;SDS011;64252;51.094;13.714;2024-01-15T07:57:43;12.85;;;5.35;;
75655;SDS011;64252;51.094;13.714;2024-01-15T08:00:09;14.25;;;6.47;;
75655;SDS011;64252;51.094;13.714;2024-01-15T08:02:36;9.82;;;4.50;;
75655;SDS011;64252;51.094;13.714;2024-01-15T08:05:01;12.52;;;4.75;;
75655;SDS011;64252;51.094;13.714;2024-01-15T08:07:28;11.30;;;4.38;;
75655;SDS011;64252;51.094;13.714;2024-01-15T08:09:54;13.88;;;5.00;;
75655;SDS011;64252;51.094;13.714;2024-01-15T08:12:19;12.40;;;4.32;;
75655;SDS011;64252;51.094;13.714;2024-01-15T08:14:45;15.70;;;5.45;;
75655;SDS011;64252;51.094;13.714;2024-01-15T08:17:11;14.70;;;5.88;;
75655;SDS011;64252;51.094;13.714;2024-01-15T08:19:36;15.25;;;5.38;;
75655;SDS011;64252;51.094;13.714;2024-01-15T08:22:02;8.70;;;3.80;;
75655;SDS011;64252;51.094;13.714;2024-01-15T08:24:28;15.40;;;5.95;;
75655;SDS011;64252;51.094;13.714;2024-01-15T08:26:54;11.82;;;4.32;;
75655;SDS011;64252;51.094;13.714;2024-01-15T08:29:21;10.25;;;3.95;;
75655;SDS011;64252;51.094;13.714;2024-01-15T08:31:47;14.68;;;5.18;;
75655;SDS011;64252;51.094;13.714;2024-01-15T08:34:12;12.38;;;5.03;;
75655;SDS011;64252;51.094;13.714;2024-01-15T08:36:39;11.50;;;5.40;;
75655;SDS011;64252;51.094;13.714;2024-01-15T08:39:06;14.02;;;5.63;;
75655;SDS011;64252;51.094;13.714;2024-01-15T08:41:32;18.83;;;6.30;;
75655;SDS011;64252;51.094;13.714;2024-01-15T08:43:58;11.75;;;4.60;;
75655;SDS011;64252;51.094;13.714;2024-01-15T08:46:24;13.40;;;5.15;;
75655;SDS011;64252;51.094;13.714;2024-01-15T08:48:49;14.07;;;4.80;;
75655;SDS011;64252;51.094;13.714;2024-01-15T08:51:15;10.75;;;4.78;;
75655;SDS011;64252;51.094;13.714;2024-01-15T08:53:41;17.05;;;7.03;;
75655;SDS011;64252;51.094;13.714;2024-01-15T08:56:06;8.65;;;3.88;;
75655;SDS011;64252;51.094;13.714;2024-01-15T08:58:34;18.15;;;6.35;;
75655;SDS011;64252;51.094;13.714;2024-01-15T09:01:00;17.08;;;7.40;;
75655;SDS011;64252;51.094;13.714;2024-01-15T09:03:26;15.20;;;5.05;;
75655;SDS011;64252;51.094;13.714;2024-01-15T09:05:51;17.95;;;7.78;;
75655;SDS011;64252;51.094;13.714;2024-01-15T09:08:18;14.55;;;5.20;;
75655;SDS011;64252;51.094;13.714;2024-01-15T09:10:44;18.50;;;6.60;;
75655;SDS011;64252;51.094;13.714;2024-01-15T09:13:11;12.93;;;5.63;;
75655;SDS011;64252;51.094;13.714;2024-01-15T09:15:36;15.55;;;5.40;;
75655;SDS011;64252;51.094;13.714;2024-01-15T09:18:02;11.98;;;4.75;;
75655;SDS011;64252;51.094;13.714;2024-01-15T09:20:28;15.63;;;5.85;;
75655;SDS011;64252;51.094;13.714;2024-01-15T09:22:53;12.88;;;4.80;;
75655;SDS011;64252;51.094;13.714;2024-01-15T09:25:19;11.88;;;5.15;;
75655;SDS011;64252;51.094;13.714;2024-01-15T09:27:45;14.80;;;4.10;;
75655;SDS011;64252;51.094;13.714;2024-01-15T09:30:10;12.73;;;4.90;;
75655;SDS011;64252;51.094;13.714;2024-01-15T09:32:36;8.63;;;3.40;;
75655;SDS011;64252;51.094;13.714;2024-01-15T09:35:02;10.05;;;3.60;;
75655;SDS011;64252;51.094;13.714;2024-01-15T09:37:28;10.60;;;4.30;;
75655;SDS011;64252;51.094;13.714;2024-01-15T09:39:54;10.20;;;3.80;;
75655;SDS011;64252;51.094;13.714;2024-01-15T09:42:21;6.65;;;2.78;;
75655;SDS011;64252;51.094;13.714;2024-01-15T09:44:49;9.93;;;3.80;;
75655;SDS011;64252;51.094;13.714;2024-01-15T09:47:14;10.70;;;3.72;;
75655;SDS011;64252;51.094;13.714;2024-01-15T09:49:41;8.60;;;3.20;;
75655;SDS011;64252;51.094;13.714;2024-01-15T09:52:07;9.95;;;3.88;;
75655;SDS011;64252;51.094;13.714;2024-01-15T09:54:34;9.52;;;3.42;;
75655;SDS011;64252;51.094;13.714;2024-01-15T09:57:00;8.82;;;3.13;;
75655;SDS011;64252;51.094;13.714;2024-01-15T09:59:26;8.80;;;2.90;;
75655;SDS011;64252;51.094;13.714;2024-01-15T10:01:53;7.00;;;2.85;;
75655;SDS011;64252;51.094;13.714;2024-01-15T10:04:21;6.88;;;2.72;;
75655;SDS011;64252;51.094;13.714;2024-01-15T10:06:46;10.07;;;3.47;;
75655;SDS011;64252;51.094;13.714;2024-01-15T10:09:15;9.35;;;3.20;;
75655;SDS011;64252;51.094;13.714;2024-01-15T10:11:42;12.68;;;3.75;;
75655;SDS011;64252;51.094;13.714;2024-01-15T10:14:12;11.38;;;3.65;;
75655;SDS011;64252;51.094;13.714;2024-01-15T10:16:38;8.65;;;3.55;;
75655;SDS011;64252;51.094;13.714;2024-01-15T10:19:04;10.50;;;3.22;;
75655;SDS011;64252;51.094;13.714;2024-01-15T10:21:33;6.82;;;3.03;;
75655;SDS011;64252;51.094;13.714;2024-01-15T10:24:02;10.05;;;3.60;;
75655;SDS011;64252;51.094;13.714;2024-01-15T10:26:29;11.05;;;4.00;;
75655;SDS011;64252;51.094;13.714;2024-01-15T10:28:56;9.00;;;2.88;;
75655;SDS011;64252;51.094;13.714;2024-01-15T10:31:23;10.50;;;2.95;;
75655;SDS011;64252;51.094;13.714;2024-01-15T10:33:49;7.75;;;2.88;;
75655;SDS011;64252;51.094;13.714;2024-01-15T10:36:15;12.52;;;3.25;;
75655;SDS011;64252;51.094;13.714;2024-01-15T10:38:45;7.57;;;3.10;;
75655;SDS011;64252;51.094;13.714;2024-01-15T10:41:11;9.70;;;3.45;;
75655;SDS011;64252;51.094;13.714;2024-01-15T10:43:38;9.50;;;3.67;;
75655;SDS011;64252;51.094;13.714;2024-01-15T10:46:06;8.75;;;3.50;;
75655;SDS011;64252;51.094;13.714;2024-01-15T10:48:33;10.90;;;3.38;;
75655;SDS011;64252;51.094;13.714;2024-01-15T10:51:01;13.07;;;3.80;;
75655;SDS011;64252;51.094;13.714;2024-01-15T10:53:36;9.68;;;3.20;;
75655;SDS011;64252;51.094;13.714;2024-01-15T10:56:05;7.72;;;2.85;;
75655;SDS011;64252;51.094;13.714;2024-01-15T10:58:33;7.97;;;3.15;;
75655;SDS011;64252;51.094;13.714;2024-01-15T11:01:00;9.55;;;2.83;;
75655;SDS011;64252;51.094;13.714;2024-01-15T11:03:26;9.35;;;3.78;;
75655;SDS011;64252;51.094;13.714;2024-01-15T11:05:53;8.75;;;3.13;;
75655;SDS011;64252;51.094;13.714;2024-01-15T11:08:20;7.57;;;3.30;;
75655;SDS011;64252;51.094;13.714;2024-01-15T11:10:47;8.82;;;3.03;;
75655;SDS011;64252;51.094;13.714;2024-01-15T11:23:54;12.05;;;3.63;;
75655;SDS011;64252;51.094;13.714;2024-01-15T11:26:32;7.45;;;3.20;;
75655;SDS011;64252;51.094;13.714;2024-01-15T11:29:03;13.45;;;3.38;;
75655;SDS011;64252;51.094;13.714;2024-01-15T11:34:15;12.20;;;3.13;;
75655;SDS011;64252;51.094;13.714;2024-01-15T11:41:54;12.18;;;4.30;;
75655;SDS011;64252;51.094;13.714;2024-01-15T11:44:21;9.40;;;3.58;;
75655;SDS011;64252;51.094;13.714;2024-01-15T11:52:15;12.85;;;4.20;;
75655;SDS011;64252;51.094;13.714;2024-01-15T11:54:44;11.25;;;4.55;;
75655;SDS011;64252;51.094;13.714;2024-01-15T11:59:51;11.23;;;4.50;;
75655;SDS011;64252;51.094;13.714;2024-01-15T12:02:16;12.95;;;5.47;;
75655;SDS011;64252;51.094;13.714;2024-01-15T12:04:42;9.18;;;3.65;;
75655;SDS011;64252;51.094;13.714;2024-01-15T12:07:08;9.52;;;3.60;;
75655;SDS011;64252;51.094;13.714;2024-01-15T12:09:33;10.38;;;3.38;;
75655;SDS011;64252;51.094;13.714;2024-01-15T12:12:02;8.13;;;2.85;;
75655;SDS011;64252;51.094;13.714;2024-01-15T12:14:32;11.85;;;3.20;;
75655;SDS011;64252;51.094;13.714;2024-01-15T12:17:00;11.70;;;3.60;;
75655;SDS011;64252;51.094;13.714;2024-01-15T12:19:25;10.30;;;3.92;;
75655;SDS011;64252;51.094;13.714;2024-01-15T12:21:51;11.60;;;3.83;;
75655;SDS011;64252;51.094;13.714;2024-01-15T12:24:17;7.38;;;3.08;;
75655;SDS011;64252;51.094;13.714;2024-01-15T12:26:43;8.18;;;3.08;;
75655;SDS011;64252;51.094;13.714;2024-01-15T12:29:10;8.02;;;2.97;;
75655;SDS011;64252;51.094;13.714;2024-01-15T12:31:37;6.45;;;2.50;;
75655;SDS011;64252;51.094;13.714;2024-01-15T12:34:02;8.77;;;3.60;;
75655;SDS011;64252;51.094;13.714;2024-01-15T12:36:31;9.90;;;3.35;;
75655;SDS011;64252;51.094;13.714;2024-01-15T12:39:00;9.10;;;3.33;;
75655;SDS011;64252;51.094;13.714;2024-01-15T12:41:25;10.18;;;3.45;;
75655;SDS011;64252;51.094;13.714;2024-01-15T12:43:51;9.02;;;3.55;;
75655;SDS011;64252;51.094;13.714;2024-01-15T12:46:17;9.93;;;3.30;;
75655;SDS011;64252;51.094;13.714;2024-01-15T12:48:44;8.43;;;3.35;;
75655;SDS011;64252;51.094;13.714;2024-01-15T12:51:10;11.13;;;3.28;;
75655;SDS011;64252;51.094;13.714;2024-01-15T12:53:35;8.93;;;3.20;;
75655;SDS011;64252;51.094;13.714;2024-01-15T12:56:01;9.45;;;3.20;;
75655;SDS011;64252;51.094;13.714;2024-01-15T12:58:27;6.25;;;2.42;;
75655;SDS011;64252;51.094;13.714;2024-01-15T13:00:53;11.73;;;2.58;;
75655;SDS011;64252;51.094;13.714;2024-01-15T13:03:19;9.90;;;3.33;;
75655;SDS011;64252;51.094;13.714;2024-01-15T13:05:44;9.27;;;3.30;;
75655;SDS011;64252;51.094;13.714;2024-01-15T13:08:11;10.23;;;3.65;;
75655;SDS011;64252;51.094;13.714;2024-01-15T13:10:37;12.13;;;3.95;;
75655;SDS011;64252;51.094;13.714;2024-01-15T13:13:03;9.98;;;3.55;;
75655;SDS011;64252;51.094;13.714;2024-01-15T13:15:29;7.47;;;3.13;;
75655;SDS011;64252;51.094;13.714;2024-01-15T13:17:54;9.15;;;3.50;;
75655;SDS011;64252;51.094;13.714;2024-01-15T13:20:21;11.90;;;3.85;;
75655;SDS011;64252;51.094;13.714;2024-01-15T13:22:49;9.13;;;3.08;;
75655;SDS011;64252;51.094;13.714;2024-01-15T13:25:14;12.23;;;4.38;;
75655;SDS011;64252;51.094;13.714;2024-01-15T13:27:41;9.90;;;3.33;;
75655;SDS011;64252;51.094;13.714;2024-01-15T13:30:07;10.68;;;3.40;;
75655;SDS011;64252;51.094;13.714;2024-01-15T13:32:33;11.30;;;3.30;;
75655;SDS011;64252;51.094;13.714;2024-01-15T13:34:59;6.65;;;2.72;;
75655;SDS011;64252;51.094;13.714;2024-01-15T13:37:25;9.88;;;3.53;;
75655;SDS011;64252;51.094;13.714;2024-01-15T13:39:51;6.85;;;2.80;;
75655;SDS011;64252;51.094;13.714;2024-01-15T13:42:17;7.38;;;3.47;;
75655;SDS011;64252;51.094;13.714;2024-01-15T13:44:43;8.93;;;3.17;;
75655;SDS011;64252;51.094;13.714;2024-01-15T13:47:09;7.38;;;2.85;;
75655;SDS011;64252;51.094;13.714;2024-01-15T13:49:35;10.63;;;3.10;;
75655;SDS011;64252;51.094;13.714;2024-01-15T13:52:02;7.32;;;3.17;;
75655;SDS011;64252;51.094;13.714;2024-01-15T13:54:29;11.90;;;3.25;;
75655;SDS011;64252;51.094;13.714;2024-01-15T13:56:55;8.57;;;3.30;;
75655;SDS011;64252;51.094;13.714;2024-01-15T13:59:22;8.82;;;3.35;;
75655;SDS011;64252;51.094;13.714;2024-01-15T14:01:49;9.50;;;3.20;;
75655;SDS011;64252;51.094;13.714;2024-01-15T14:04:15;9.35;;;3.72;;
75655;SDS011;64252;51.094;13.714;2024-01-15T14:06:41;10.27;;;3.42;;
75655;SDS011;64252;51.094;13.714;2024-01-15T14:09:06;8.02;;;3.28;;
75655;SDS011;64252;51.094;13.714;2024-01-15T14:11:35;7.47;;;3.22;;
75655;SDS011;64252;51.094;13.714;2024-01-15T14:14:03;11.02;;;3.65;;
75655;SDS011;64252;51.094;13.714;2024-01-15T14:16:28;8.77;;;3.45;;
75655;SDS011;64252;51.094;13.714;2024-01-15T14:18:54;8.48;;;3.65;;
75655;SDS011;64252;51.094;13.714;2024-01-15T14:21:20;8.73;;;3.67;;
75655;SDS011;64252;51.094;13.714;2024-01-15T14:23:45;8.95;;;4.47;;
75655;SDS011;64252;51.094;13.714;2024-01-15T14:26:11;10.07;;;3.67;;
75655;SDS011;64252;51.094;13.714;2024-01-15T14:28:37;12.40;;;3.55;;
75655;SDS011;64252;51.094;13.714;2024-01-15T14:31:03;10.48;;;3.35;;
75655;SDS011;64252;51.094;13.714;2024-01-15T14:33:30;8.52;;;3.92;;
75655;SDS011;64252;51.094;13.714;2024-01-15T14:35:57;10.23;;;4.05;;
75655;SDS011;64252;51.094;13.714;2024-01-15T14:38:22;8.95;;;3.28;;
75655;SDS011;64252;51.094;13.714;2024-01-15T14:40:48;8.85;;;3.55;;
75655;SDS011;64252;51.094;13.714;2024-01-15T14:43:15;8.90;;;3.63;;
75655;SDS011;64252;51.094;13.714;2024-01-15T14:45:40;10.40;;;3.88;;